Terminal Aerodrome Forecast
Issued by NWS

Home | Current Version | Previous Version | Text Only | Print | Product List | Glossary On
Versions: 1 2 3 4 5 6 7 8 9 10 11 12 13 14 15 16
000
FTUS45 KRIW 042322
TAFCPR
TAF
KCPR 042322Z 0500/0524 32009KT P6SM SCT120
     FM050200 09007KT P6SM VCTS SCT080CB BKN200
     FM050700 VRB06KT P6SM VCSH BKN100
     FM051200 22011KT P6SM SCT120
     FM051900 35013KT P6SM VCTS SCT040CB BKN080=

USA.gov is the U.S. government's official web portal to all federal, state and local government web resources and services.